TVF56MG LFPO-LGAV
Flight info
| Callsign | TVF56MG |
|---|---|
| Flight time | N/A |
| Altitude | 23000 |
| Route | BUBLI DCT LUVAL/N0461F330 DCT BEGAR DCT TRA DCT GAMSA DCT GEDSO DCT VEKEN DCT DARZA DCT PINDO/N0461F350 DCT PIKOS UL607 XORKI |
| Aircraft | B738/M-SDE2E3FGHIRWXY/LB1 |
Departure
| Time | 2026-05-07 12:39 |
|---|---|
| Airport | Paris-Orly Airport (LFPO) |
Arrival
| Time | N/A |
|---|---|
| Airport | Athens Eleftherios Venizelos International Airport (LGAV) |
| Time | Latitude | Longitude | Altitude | Speed | Heading |
|---|---|---|---|---|---|
| 2026-05-07 12:23 | 48.72592 | 2.36172 | 293 ft | 0 kts | 339° |
| 2026-05-07 12:33 | 48.72545 | 2.36201 | 297 ft | 4 kts | 333° |
| 2026-05-07 12:33 | 48.72522 | 2.36222 | 298 ft | 4 kts | 316° |
| 2026-05-07 12:33 | 48.72511 | 2.36250 | 298 ft | 4 kts | 258° |
| 2026-05-07 12:34 | 48.72517 | 2.36285 | 299 ft | 4 kts | 255° |
| 2026-05-07 12:34 | 48.72521 | 2.36307 | 300 ft | 1 kts | 255° |
| 2026-05-07 12:35 | 48.72519 | 2.36298 | 300 ft | 5 kts | 255° |
| 2026-05-07 12:36 | 48.72468 | 2.36232 | 297 ft | 14 kts | 180° |
| 2026-05-07 12:36 | 48.72405 | 2.36137 | 297 ft | 15 kts | 252° |
| 2026-05-07 12:36 | 48.72375 | 2.35967 | 294 ft | 18 kts | 255° |
| 2026-05-07 12:36 | 48.72342 | 2.35790 | 299 ft | 17 kts | 255° |
| 2026-05-07 12:37 | 48.72294 | 2.35629 | 294 ft | 17 kts | 223° |
| 2026-05-07 12:37 | 48.72186 | 2.35618 | 297 ft | 16 kts | 167° |
| 2026-05-07 12:37 | 48.72083 | 2.35671 | 296 ft | 15 kts | 151° |
| 2026-05-07 12:37 | 48.72015 | 2.35788 | 295 ft | 15 kts | 120° |
| 2026-05-07 12:38 | 48.71970 | 2.35923 | 296 ft | 14 kts | 104° |
| 2026-05-07 12:38 | 48.71983 | 2.36087 | 295 ft | 27 kts | 75° |
| 2026-05-07 12:38 | 48.72087 | 2.36647 | 300 ft | 82 kts | 74° |
| 2026-05-07 12:38 | 48.72284 | 2.37718 | 293 ft | 127 kts | 74° |
| 2026-05-07 12:39 | 48.72554 | 2.39176 | 299 ft | 160 kts | 73° |
| 2026-05-07 12:39 | 48.72835 | 2.40744 | 770 ft | 151 kts | 73° |
| 2026-05-07 12:39 | 48.73125 | 2.42453 | 1057 ft | 184 kts | 73° |
| 2026-05-07 12:39 | 48.73506 | 2.44506 | 1393 ft | 211 kts | 73° |
| 2026-05-07 12:40 | 48.73918 | 2.46696 | 1931 ft | 217 kts | 74° |
| 2026-05-07 12:40 | 48.74123 | 2.48898 | 2841 ft | 206 kts | 86° |
| 2026-05-07 12:40 | 48.74192 | 2.51007 | 3725 ft | 199 kts | 87° |
| 2026-05-07 12:40 | 48.74258 | 2.53193 | 4096 ft | 219 kts | 86° |
| 2026-05-07 12:41 | 48.74293 | 2.55629 | 4321 ft | 246 kts | 96° |
| 2026-05-07 12:41 | 48.73610 | 2.58095 | 4798 ft | 263 kts | 130° |
| 2026-05-07 12:41 | 48.72117 | 2.59678 | 5585 ft | 267 kts | 162° |
| 2026-05-07 12:41 | 48.70283 | 2.59876 | 6472 ft | 267 kts | 192° |
| 2026-05-07 12:42 | 48.68591 | 2.58724 | 7254 ft | 270 kts | 219° |
| 2026-05-07 12:42 | 48.67447 | 2.56484 | 8003 ft | 274 kts | 246° |
| 2026-05-07 12:42 | 48.66912 | 2.53699 | 8784 ft | 278 kts | 258° |
| 2026-05-07 12:42 | 48.66546 | 2.50805 | 9571 ft | 282 kts | 259° |
| 2026-05-07 12:43 | 48.66194 | 2.47858 | 10296 ft | 287 kts | 259° |
| 2026-05-07 12:43 | 48.65818 | 2.44793 | 10564 ft | 309 kts | 259° |
| 2026-05-07 12:43 | 48.65396 | 2.41492 | 10758 ft | 331 kts | 258° |
| 2026-05-07 12:43 | 48.64936 | 2.37983 | 10934 ft | 352 kts | 258° |
| 2026-05-07 12:44 | 48.64504 | 2.34248 | 11356 ft | 364 kts | 265° |
| 2026-05-07 12:44 | 48.64660 | 2.30414 | 12038 ft | 368 kts | 281° |
| 2026-05-07 12:44 | 48.65463 | 2.26736 | 12836 ft | 370 kts | 295° |
| 2026-05-07 12:44 | 48.66703 | 2.23321 | 13604 ft | 372 kts | 299° |
| 2026-05-07 12:45 | 48.68003 | 2.19923 | 14289 ft | 375 kts | 299° |
| 2026-05-07 12:45 | 48.69309 | 2.16475 | 14902 ft | 379 kts | 298° |
| 2026-05-07 12:45 | 48.70602 | 2.12982 | 15511 ft | 382 kts | 298° |
| 2026-05-07 12:45 | 48.71893 | 2.09446 | 16106 ft | 385 kts | 298° |
| 2026-05-07 12:46 | 48.73379 | 2.06110 | 16663 ft | 392 kts | 313° |
| 2026-05-07 12:46 | 48.75604 | 2.03617 | 17265 ft | 398 kts | 333° |
| 2026-05-07 12:46 | 48.78234 | 2.02348 | 17877 ft | 404 kts | 350° |
| 2026-05-07 12:46 | 48.81048 | 2.02360 | 18422 ft | 411 kts | 5° |
| 2026-05-07 12:47 | 48.83894 | 2.02935 | 18913 ft | 414 kts | 7° |
| 2026-05-07 12:47 | 48.86755 | 2.03578 | 19388 ft | 418 kts | 7° |
| 2026-05-07 12:47 | 48.89640 | 2.04226 | 19901 ft | 420 kts | 7° |
| 2026-05-07 12:47 | 48.92542 | 2.04857 | 20391 ft | 423 kts | 6° |
| 2026-05-07 12:48 | 48.95470 | 2.05471 | 20866 ft | 426 kts | 6° |
| 2026-05-07 12:48 | 48.98418 | 2.06075 | 21342 ft | 429 kts | 6° |
| 2026-05-07 12:48 | 49.01381 | 2.06677 | 21814 ft | 431 kts | 6° |
| 2026-05-07 12:48 | 49.04368 | 2.07282 | 22269 ft | 434 kts | 6° |
| 2026-05-07 12:49 | 49.07373 | 2.07893 | 22713 ft | 438 kts | 6° |
| 2026-05-07 12:49 | 49.10395 | 2.08518 | 23143 ft | 441 kts | 8° |
| 2026-05-07 12:49 | 49.13389 | 2.09628 | 23566 ft | 445 kts | 17° |
| 2026-05-07 12:49 | 49.16252 | 2.11457 | 23936 ft | 449 kts | 27° |
| 2026-05-07 12:50 | 49.18943 | 2.13911 | 24301 ft | 451 kts | 31° |
| 2026-05-07 12:50 | 49.21602 | 2.16493 | 24656 ft | 453 kts | 32° |
| 2026-05-07 12:50 | 49.24261 | 2.19104 | 24993 ft | 456 kts | 32° |
| 2026-05-07 12:50 | 49.26938 | 2.21718 | 25341 ft | 458 kts | 31° |
| 2026-05-07 12:51 | 49.29635 | 2.24329 | 25675 ft | 460 kts | 31° |
| 2026-05-07 12:51 | 49.32367 | 2.26955 | 25996 ft | 463 kts | 31° |
| 2026-05-07 12:51 | 49.35099 | 2.29570 | 26311 ft | 465 kts | 31° |
| 2026-05-07 12:51 | 49.37850 | 2.32201 | 26628 ft | 467 kts | 31° |
| 2026-05-07 12:52 | 49.40611 | 2.34843 | 26936 ft | 469 kts | 31° |
| 2026-05-07 12:52 | 49.43378 | 2.37497 | 27220 ft | 471 kts | 31° |
| 2026-05-07 12:52 | 49.46166 | 2.40174 | 27503 ft | 473 kts | 31° |
| 2026-05-07 12:52 | 49.48956 | 2.42860 | 27787 ft | 475 kts | 31° |
| 2026-05-07 12:53 | 49.51770 | 2.45572 | 28073 ft | 477 kts | 31° |
| 2026-05-07 12:53 | 49.54585 | 2.48288 | 28430 ft | 477 kts | 31° |
| 2026-05-07 12:53 | 49.57373 | 2.50981 | 28843 ft | 475 kts | 31° |
| 2026-05-07 12:53 | 49.60173 | 2.53687 | 29307 ft | 473 kts | 31° |
| 2026-05-07 12:54 | 49.62968 | 2.56391 | 29714 ft | 472 kts | 31° |
| 2026-05-07 12:54 | 49.65750 | 2.59087 | 30078 ft | 472 kts | 31° |
| 2026-05-07 12:54 | 49.68532 | 2.61786 | 30389 ft | 472 kts | 31° |
| 2026-05-07 12:54 | 49.71300 | 2.64477 | 30717 ft | 471 kts | 31° |
| 2026-05-07 12:55 | 49.74036 | 2.67139 | 31023 ft | 470 kts | 31° |
| 2026-05-07 12:55 | 49.76808 | 2.69841 | 31317 ft | 470 kts | 31° |
| 2026-05-07 12:55 | 49.79580 | 2.72545 | 31599 ft | 470 kts | 31° |
| 2026-05-07 12:55 | 49.82345 | 2.75246 | 31891 ft | 470 kts | 31° |
| 2026-05-07 12:56 | 49.85141 | 2.77982 | 32195 ft | 469 kts | 31° |
| 2026-05-07 12:56 | 49.87864 | 2.80649 | 32491 ft | 469 kts | 31° |
| 2026-05-07 12:56 | 49.90619 | 2.83351 | 32773 ft | 469 kts | 31° |
| 2026-05-07 12:56 | 49.93370 | 2.86053 | 33052 ft | 469 kts | 31° |
| 2026-05-07 12:57 | 49.96129 | 2.88766 | 33326 ft | 468 kts | 31° |
| 2026-05-07 12:57 | 49.98872 | 2.91468 | 33609 ft | 468 kts | 31° |
| 2026-05-07 12:57 | 50.01634 | 2.94192 | 33883 ft | 468 kts | 31° |
| 2026-05-07 12:57 | 50.04382 | 2.96907 | 34131 ft | 468 kts | 31° |
| 2026-05-07 12:58 | 50.07124 | 2.99619 | 34321 ft | 469 kts | 31° |
| 2026-05-07 12:58 | 50.09876 | 3.02345 | 34529 ft | 468 kts | 31° |
| 2026-05-07 12:58 | 50.12635 | 3.05082 | 34738 ft | 468 kts | 31° |
| 2026-05-07 12:58 | 50.15381 | 3.07809 | 34912 ft | 469 kts | 31° |
| 2026-05-07 12:59 | 50.18135 | 3.10549 | 35113 ft | 469 kts | 31° |
| 2026-05-07 12:59 | 50.20868 | 3.13269 | 35336 ft | 468 kts | 31° |
| 2026-05-07 12:59 | 50.23665 | 3.15920 | 35521 ft | 467 kts | 26° |
| 2026-05-07 12:59 | 50.26594 | 3.18088 | 35694 ft | 467 kts | 22° |
| 2026-05-07 13:00 | 50.29583 | 3.20093 | 35876 ft | 467 kts | 21° |
| 2026-05-07 13:00 | 50.32570 | 3.22072 | 36063 ft | 467 kts | 22° |
| 2026-05-07 13:00 | 50.35539 | 3.24086 | 36251 ft | 467 kts | 22° |
| 2026-05-07 13:00 | 50.38337 | 3.26033 | 36423 ft | 467 kts | 23° |
| 2026-05-07 13:01 | 50.41251 | 3.28097 | 36590 ft | 467 kts | 24° |
| 2026-05-07 13:01 | 50.44161 | 3.30337 | 36756 ft | 468 kts | 26° |
| 2026-05-07 13:01 | 50.47051 | 3.32659 | 36911 ft | 467 kts | 26° |
| 2026-05-07 13:01 | 50.49971 | 3.34994 | 37059 ft | 468 kts | 26° |
| 2026-05-07 13:02 | 50.55852 | 3.39421 | 37067 ft | 470 kts | 23° |
| 2026-05-07 13:02 | 50.61835 | 3.43525 | 37065 ft | 467 kts | 22° |
| 2026-05-07 13:03 | 50.67732 | 3.47569 | 37068 ft | 464 kts | 22° |
| 2026-05-07 13:03 | 50.73678 | 3.51715 | 37072 ft | 463 kts | 23° |
| 2026-05-07 13:04 | 50.79551 | 3.55852 | 37074 ft | 462 kts | 23° |
| 2026-05-07 13:04 | 50.85385 | 3.59978 | 37069 ft | 462 kts | 23° |
| 2026-05-07 13:05 | 50.91299 | 3.64170 | 37072 ft | 463 kts | 23° |
| 2026-05-07 13:05 | 50.97173 | 3.68344 | 37073 ft | 464 kts | 23° |
| 2026-05-07 13:06 | 51.03072 | 3.72547 | 37071 ft | 465 kts | 23° |
| 2026-05-07 13:06 | 51.08976 | 3.76765 | 37072 ft | 467 kts | 23° |
| 2026-05-07 13:07 | 51.14921 | 3.81025 | 37076 ft | 468 kts | 23° |
| 2026-05-07 13:07 | 51.20803 | 3.85252 | 37069 ft | 469 kts | 23° |
| 2026-05-07 13:08 | 51.26806 | 3.89578 | 37072 ft | 469 kts | 23° |
| 2026-05-07 13:08 | 51.32704 | 3.93840 | 37071 ft | 469 kts | 23° |
| 2026-05-07 13:09 | 51.38663 | 3.98160 | 37067 ft | 469 kts | 24° |
| 2026-05-07 13:09 | 51.44593 | 4.02469 | 37071 ft | 468 kts | 24° |
| 2026-05-07 13:10 | 51.50539 | 4.06758 | 37068 ft | 467 kts | 22° |
| 2026-05-07 13:10 | 51.56486 | 4.10743 | 37072 ft | 466 kts | 21° |
| 2026-05-07 13:11 | 51.61551 | 4.14076 | 37076 ft | 465 kts | 21° |
| 2026-05-07 13:11 | 51.67522 | 4.18043 | 37072 ft | 464 kts | 21° |
| 2026-05-07 13:12 | 51.73474 | 4.22040 | 37074 ft | 463 kts | 22° |
| 2026-05-07 13:12 | 51.79421 | 4.26058 | 37072 ft | 463 kts | 22° |
| 2026-05-07 13:13 | 51.85352 | 4.30079 | 37078 ft | 463 kts | 22° |
| 2026-05-07 13:13 | 51.91299 | 4.34122 | 37075 ft | 463 kts | 22° |
| 2026-05-07 13:14 | 51.97248 | 4.38176 | 37080 ft | 463 kts | 22° |
| 2026-05-07 13:14 | 52.02930 | 4.42059 | 37081 ft | 463 kts | 22° |
| 2026-05-07 13:15 | 52.08888 | 4.46143 | 37074 ft | 464 kts | 22° |
| 2026-05-07 13:15 | 52.14814 | 4.50216 | 37079 ft | 464 kts | 22° |
| 2026-05-07 13:16 | 52.19749 | 4.53617 | 37079 ft | 464 kts | 22° |
| 2026-05-07 13:16 | 52.25697 | 4.57728 | 37081 ft | 464 kts | 22° |
| 2026-05-07 13:17 | 52.31646 | 4.61850 | 37077 ft | 465 kts | 22° |
| 2026-05-07 13:17 | 52.37578 | 4.65973 | 37072 ft | 465 kts | 22° |
| 2026-05-07 13:18 | 52.43538 | 4.70129 | 37078 ft | 465 kts | 22° |
| 2026-05-07 13:18 | 52.49485 | 4.74287 | 37078 ft | 465 kts | 22° |
| 2026-05-07 13:19 | 52.54697 | 4.77941 | 37075 ft | 465 kts | 22° |
| 2026-05-07 13:19 | 52.59862 | 4.81571 | 37085 ft | 464 kts | 22° |
| 2026-05-07 13:20 | 52.65811 | 4.85765 | 37086 ft | 464 kts | 22° |
| 2026-05-07 13:20 | 52.71693 | 4.89923 | 37089 ft | 464 kts | 22° |
| 2026-05-07 13:21 | 52.77622 | 4.94127 | 37100 ft | 464 kts | 23° |
| 2026-05-07 13:21 | 52.83547 | 4.98340 | 37099 ft | 463 kts | 23° |
| 2026-05-07 13:22 | 52.89455 | 5.02555 | 37108 ft | 463 kts | 23° |
| 2026-05-07 13:22 | 52.95373 | 5.06789 | 37090 ft | 462 kts | 23° |
| 2026-05-07 13:23 | 53.01275 | 5.11024 | 37095 ft | 461 kts | 23° |
| 2026-05-07 13:23 | 53.07148 | 5.15250 | 37092 ft | 460 kts | 23° |
| 2026-05-07 13:24 | 53.13026 | 5.19493 | 37090 ft | 459 kts | 23° |
| 2026-05-07 13:24 | 53.18876 | 5.23729 | 37094 ft | 459 kts | 23° |
| 2026-05-07 13:25 | 53.24726 | 5.27977 | 37095 ft | 458 kts | 23° |
| 2026-05-07 13:25 | 53.30564 | 5.32230 | 37100 ft | 457 kts | 24° |
| 2026-05-07 13:26 | 53.36388 | 5.36484 | 37099 ft | 457 kts | 24° |
| 2026-05-07 13:26 | 53.42218 | 5.40756 | 37103 ft | 456 kts | 24° |
| 2026-05-07 13:27 | 53.48029 | 5.45027 | 37103 ft | 456 kts | 24° |
| 2026-05-07 13:27 | 53.53799 | 5.49280 | 37109 ft | 456 kts | 24° |
| 2026-05-07 13:28 | 53.59614 | 5.53580 | 37110 ft | 456 kts | 24° |
| 2026-05-07 13:28 | 53.65419 | 5.57885 | 37104 ft | 456 kts | 24° |
| 2026-05-07 13:29 | 53.71226 | 5.62204 | 37104 ft | 456 kts | 24° |
| 2026-05-07 13:29 | 53.77033 | 5.66537 | 37105 ft | 456 kts | 24° |
| 2026-05-07 13:30 | 53.82831 | 5.70876 | 37106 ft | 456 kts | 24° |
| 2026-05-07 13:30 | 53.88637 | 5.75233 | 37106 ft | 456 kts | 24° |
| 2026-05-07 13:31 | 53.94443 | 5.79606 | 37108 ft | 456 kts | 24° |
| 2026-05-07 13:31 | 54.00238 | 5.83982 | 37103 ft | 456 kts | 24° |
| 2026-05-07 13:32 | 54.05989 | 5.88338 | 37110 ft | 456 kts | 24° |
| 2026-05-07 13:32 | 54.11806 | 5.92759 | 37105 ft | 456 kts | 24° |
| 2026-05-07 13:33 | 54.17602 | 5.97176 | 37107 ft | 456 kts | 24° |
| 2026-05-07 13:33 | 54.23397 | 6.01607 | 37104 ft | 456 kts | 24° |
| 2026-05-07 13:34 | 54.32088 | 6.08278 | 37108 ft | 456 kts | 24° |
| 2026-05-07 13:35 | 54.37871 | 6.12734 | 37111 ft | 456 kts | 24° |
| 2026-05-07 13:35 | 54.43655 | 6.17204 | 37110 ft | 456 kts | 24° |
| 2026-05-07 13:36 | 54.49441 | 6.21691 | 37112 ft | 456 kts | 24° |
| 2026-05-07 13:36 | 54.55222 | 6.26187 | 37110 ft | 456 kts | 24° |
| 2026-05-07 13:37 | 54.61002 | 6.30697 | 37117 ft | 456 kts | 24° |
| 2026-05-07 13:37 | 54.66772 | 6.35213 | 37115 ft | 456 kts | 24° |
| 2026-05-07 13:38 | 54.72543 | 6.39743 | 37114 ft | 456 kts | 24° |
| 2026-05-07 13:38 | 54.78310 | 6.44285 | 37117 ft | 456 kts | 24° |
| 2026-05-07 13:39 | 54.84078 | 6.48843 | 37119 ft | 455 kts | 24° |
| 2026-05-07 13:39 | 54.89847 | 6.53415 | 37118 ft | 455 kts | 24° |
| 2026-05-07 13:40 | 54.95600 | 6.57989 | 37117 ft | 455 kts | 24° |
| 2026-05-07 13:40 | 55.01398 | 6.62454 | 37112 ft | 455 kts | 19° |
| 2026-05-07 13:41 | 55.07393 | 6.65960 | 37120 ft | 455 kts | 17° |
| 2026-05-07 13:41 | 55.13431 | 6.69242 | 37117 ft | 455 kts | 17° |
| 2026-05-07 13:42 | 55.19461 | 6.72588 | 37119 ft | 455 kts | 17° |
| 2026-05-07 13:42 | 55.25485 | 6.76011 | 37118 ft | 455 kts | 17° |
| 2026-05-07 13:43 | 55.31483 | 6.79458 | 37121 ft | 455 kts | 17° |
| 2026-05-07 13:43 | 55.37478 | 6.82918 | 37121 ft | 455 kts | 17° |
| 2026-05-07 13:44 | 55.43486 | 6.86395 | 37119 ft | 455 kts | 17° |
| 2026-05-07 13:44 | 55.49500 | 6.89884 | 37123 ft | 455 kts | 17° |
| 2026-05-07 13:45 | 55.55511 | 6.93383 | 37124 ft | 455 kts | 17° |
| 2026-05-07 13:45 | 55.61524 | 6.96894 | 37122 ft | 455 kts | 17° |
| 2026-05-07 13:46 | 55.67530 | 7.00412 | 37123 ft | 455 kts | 17° |
| 2026-05-07 13:46 | 55.73541 | 7.03945 | 37120 ft | 455 kts | 17° |
| 2026-05-07 13:47 | 55.79551 | 7.07489 | 37123 ft | 455 kts | 17° |
| 2026-05-07 13:47 | 55.85565 | 7.11047 | 37122 ft | 455 kts | 17° |
| 2026-05-07 13:48 | 55.91576 | 7.14614 | 37122 ft | 456 kts | 17° |
| 2026-05-07 13:48 | 55.95588 | 7.17001 | 37125 ft | 456 kts | 17° |
| 2026-05-07 13:49 | 56.00457 | 7.19906 | 37120 ft | 456 kts | 17° |
| 2026-05-07 13:49 | 56.06492 | 7.23517 | 37117 ft | 456 kts | 17° |
| 2026-05-07 13:50 | 56.12508 | 7.27128 | 37116 ft | 457 kts | 17° |
| 2026-05-07 13:50 | 56.18535 | 7.30759 | 37120 ft | 457 kts | 17° |
| 2026-05-07 13:51 | 56.24565 | 7.34402 | 37117 ft | 457 kts | 17° |
| 2026-05-07 13:51 | 56.30597 | 7.38060 | 37118 ft | 458 kts | 17° |
| 2026-05-07 13:52 | 56.36639 | 7.41735 | 37117 ft | 458 kts | 17° |
| 2026-05-07 13:52 | 56.42683 | 7.45424 | 37119 ft | 458 kts | 17° |
| 2026-05-07 13:53 | 56.48727 | 7.49126 | 37118 ft | 459 kts | 17° |
| 2026-05-07 13:53 | 56.54763 | 7.52836 | 37117 ft | 459 kts | 17° |
| 2026-05-07 13:54 | 56.60804 | 7.56560 | 37120 ft | 459 kts | 17° |
| 2026-05-07 13:54 | 56.66861 | 7.60308 | 37119 ft | 459 kts | 17° |
| 2026-05-07 13:55 | 56.72906 | 7.64060 | 37117 ft | 459 kts | 17° |
| 2026-05-07 13:55 | 56.78956 | 7.67829 | 37116 ft | 459 kts | 17° |
| 2026-05-07 13:56 | 56.84982 | 7.71595 | 37119 ft | 460 kts | 17° |
| 2026-05-07 13:56 | 56.91012 | 7.75377 | 37115 ft | 460 kts | 17° |
| 2026-05-07 13:57 | 56.97051 | 7.79177 | 37119 ft | 460 kts | 16° |
| 2026-05-07 13:57 | 57.03112 | 7.83005 | 37119 ft | 460 kts | 16° |
| 2026-05-07 13:58 | 57.09159 | 7.86837 | 37118 ft | 460 kts | 16° |
| 2026-05-07 13:58 | 57.15218 | 7.90689 | 37115 ft | 460 kts | 16° |
| 2026-05-07 13:59 | 57.21258 | 7.94543 | 37119 ft | 460 kts | 16° |
| 2026-05-07 13:59 | 57.27322 | 7.98426 | 37117 ft | 461 kts | 16° |
| 2026-05-07 14:00 | 57.33384 | 8.02321 | 37120 ft | 461 kts | 16° |
| 2026-05-07 14:00 | 57.39431 | 8.06220 | 37118 ft | 461 kts | 16° |
| 2026-05-07 14:01 | 57.45477 | 8.10132 | 37120 ft | 461 kts | 16° |
| 2026-05-07 14:01 | 57.50517 | 8.13404 | 37124 ft | 460 kts | 16° |
| 2026-05-07 14:02 | 57.56566 | 8.17343 | 37111 ft | 460 kts | 16° |
| 2026-05-07 14:02 | 57.62602 | 8.21288 | 37113 ft | 460 kts | 16° |
| 2026-05-07 14:03 | 57.68640 | 8.25248 | 37127 ft | 460 kts | 16° |
| 2026-05-07 14:03 | 57.74666 | 8.29214 | 37124 ft | 459 kts | 16° |
| 2026-05-07 14:04 | 57.80690 | 8.33193 | 37130 ft | 459 kts | 16° |
| 2026-05-07 14:04 | 57.86723 | 8.37191 | 37126 ft | 459 kts | 16° |
| 2026-05-07 14:05 | 57.92747 | 8.41198 | 37130 ft | 459 kts | 16° |
| 2026-05-07 14:05 | 57.98138 | 8.44797 | 37128 ft | 459 kts | 16° |
| 2026-05-07 14:06 | 58.04161 | 8.48831 | 37136 ft | 459 kts | 16° |
| 2026-05-07 14:06 | 58.10168 | 8.52868 | 37126 ft | 459 kts | 16° |
| 2026-05-07 14:07 | 58.16185 | 8.56927 | 37128 ft | 459 kts | 16° |
| 2026-05-07 14:07 | 58.22212 | 8.61007 | 37126 ft | 459 kts | 15° |
| 2026-05-07 14:08 | 58.28238 | 8.65101 | 37127 ft | 459 kts | 15° |
| 2026-05-07 14:08 | 58.34238 | 8.69192 | 37125 ft | 460 kts | 15° |
| 2026-05-07 14:09 | 58.40269 | 8.73319 | 37121 ft | 460 kts | 15° |
| 2026-05-07 14:09 | 58.46297 | 8.77460 | 37117 ft | 460 kts | 15° |
| 2026-05-07 14:10 | 58.52314 | 8.81608 | 37122 ft | 461 kts | 15° |
| 2026-05-07 14:10 | 58.58348 | 8.85782 | 37119 ft | 461 kts | 15° |
| 2026-05-07 14:11 | 58.64394 | 8.89981 | 37111 ft | 462 kts | 15° |
| 2026-05-07 14:11 | 58.67427 | 8.92093 | 36875 ft | 466 kts | 15° |
| 2026-05-07 14:11 | 58.70459 | 8.94209 | 36824 ft | 459 kts | 15° |
| 2026-05-07 14:12 | 58.76444 | 8.98398 | 36794 ft | 459 kts | 15° |
| 2026-05-07 14:12 | 58.79474 | 9.00520 | 36659 ft | 464 kts | 15° |
| 2026-05-07 14:12 | 58.82508 | 9.02679 | 36388 ft | 468 kts | 18° |
| 2026-05-07 14:12 | 58.85424 | 9.05423 | 36122 ft | 471 kts | 26° |
| 2026-05-07 14:13 | 58.88143 | 9.09034 | 35520 ft | 474 kts | 33° |
| 2026-05-07 14:13 | 58.90732 | 9.13022 | 34929 ft | 475 kts | 34° |
| 2026-05-07 14:13 | 58.93245 | 9.17025 | 34281 ft | 476 kts | 34° |
| 2026-05-07 14:13 | 58.95811 | 9.21119 | 33551 ft | 476 kts | 33° |
| 2026-05-07 14:14 | 58.98397 | 9.25203 | 32795 ft | 477 kts | 33° |
| 2026-05-07 14:14 | 59.00952 | 9.29197 | 32083 ft | 477 kts | 33° |
| 2026-05-07 14:14 | 59.03533 | 9.33205 | 31352 ft | 478 kts | 33° |
| 2026-05-07 14:14 | 59.06152 | 9.37264 | 30607 ft | 479 kts | 33° |
| 2026-05-07 14:15 | 59.08801 | 9.41375 | 29774 ft | 481 kts | 33° |
| 2026-05-07 14:15 | 59.11363 | 9.45363 | 29134 ft | 477 kts | 33° |
| 2026-05-07 14:15 | 59.13934 | 9.49379 | 28538 ft | 473 kts | 33° |
| 2026-05-07 14:15 | 59.16487 | 9.53375 | 28057 ft | 466 kts | 33° |
| 2026-05-07 14:16 | 59.18977 | 9.57250 | 27937 ft | 450 kts | 31° |
| 2026-05-07 14:16 | 59.21509 | 9.60728 | 27621 ft | 438 kts | 27° |
| 2026-05-07 14:16 | 59.24019 | 9.63878 | 27445 ft | 427 kts | 26° |
| 2026-05-07 14:16 | 59.26518 | 9.66967 | 27236 ft | 417 kts | 26° |
| 2026-05-07 14:17 | 59.28919 | 9.69997 | 27073 ft | 407 kts | 27° |
| 2026-05-07 14:17 | 59.31271 | 9.73019 | 26887 ft | 398 kts | 27° |
| 2026-05-07 14:17 | 59.33607 | 9.75621 | 26633 ft | 382 kts | 13° |
| 2026-05-07 14:17 | 59.36129 | 9.77188 | 26270 ft | 373 kts | 8° |
| 2026-05-07 14:18 | 59.38619 | 9.78500 | 25899 ft | 370 kts | 7° |
| 2026-05-07 14:18 | 59.41097 | 9.79773 | 25538 ft | 368 kts | 7° |
| 2026-05-07 14:18 | 59.43553 | 9.81058 | 25173 ft | 366 kts | 8° |
| 2026-05-07 14:18 | 59.46018 | 9.82381 | 24809 ft | 364 kts | 8° |
| 2026-05-07 14:19 | 59.48440 | 9.83708 | 24462 ft | 361 kts | 8° |
| 2026-05-07 14:19 | 59.50861 | 9.85050 | 24117 ft | 360 kts | 8° |
| 2026-05-07 14:19 | 59.53267 | 9.86393 | 23768 ft | 359 kts | 8° |
| 2026-05-07 14:19 | 59.55660 | 9.87733 | 23365 ft | 358 kts | 9° |
| 2026-05-07 14:20 | 59.58021 | 9.89059 | 22965 ft | 356 kts | 9° |
| 2026-05-07 14:20 | 59.60423 | 9.90411 | 22587 ft | 354 kts | 9° |
| 2026-05-07 14:20 | 59.62770 | 9.91733 | 22259 ft | 350 kts | 9° |
| 2026-05-07 14:20 | 59.65115 | 9.93056 | 21905 ft | 348 kts | 9° |
| 2026-05-07 14:21 | 59.67413 | 9.94349 | 21612 ft | 343 kts | 9° |
| 2026-05-07 14:21 | 59.69719 | 9.95638 | 21284 ft | 341 kts | 9° |
| 2026-05-07 14:21 | 59.72001 | 9.96911 | 20944 ft | 340 kts | 9° |
| 2026-05-07 14:21 | 59.74268 | 9.98178 | 20608 ft | 337 kts | 9° |
| 2026-05-07 14:22 | 59.76513 | 9.99435 | 20284 ft | 335 kts | 9° |
| 2026-05-07 14:22 | 59.78762 | 10.00697 | 19957 ft | 334 kts | 9° |
| 2026-05-07 14:22 | 59.80984 | 10.01945 | 19619 ft | 333 kts | 9° |
| 2026-05-07 14:22 | 59.83209 | 10.03197 | 19292 ft | 331 kts | 9° |
| 2026-05-07 14:23 | 59.85409 | 10.04437 | 18963 ft | 330 kts | 9° |
| 2026-05-07 14:23 | 59.87593 | 10.05669 | 18638 ft | 328 kts | 9° |
| 2026-05-07 14:23 | 59.89809 | 10.06921 | 18305 ft | 327 kts | 10° |
| 2026-05-07 14:23 | 59.92000 | 10.08161 | 17926 ft | 326 kts | 10° |
| 2026-05-07 14:24 | 59.94188 | 10.09402 | 17587 ft | 325 kts | 10° |
| 2026-05-07 14:24 | 59.96337 | 10.10632 | 17336 ft | 320 kts | 10° |
| 2026-05-07 14:24 | 59.98479 | 10.11864 | 16993 ft | 318 kts | 11° |
| 2026-05-07 14:24 | 60.00596 | 10.13081 | 16676 ft | 316 kts | 11° |
| 2026-05-07 14:25 | 60.02698 | 10.14291 | 16370 ft | 314 kts | 11° |
| 2026-05-07 14:25 | 60.04591 | 10.15382 | 16077 ft | 312 kts | 11° |
| 2026-05-07 14:25 | 60.06675 | 10.16584 | 15761 ft | 310 kts | 11° |
| 2026-05-07 14:25 | 60.08742 | 10.17775 | 15469 ft | 309 kts | 11° |
| 2026-05-07 14:26 | 60.10803 | 10.18966 | 15148 ft | 309 kts | 11° |
| 2026-05-07 14:26 | 60.12859 | 10.20157 | 14852 ft | 308 kts | 12° |
| 2026-05-07 14:26 | 60.14892 | 10.21336 | 14534 ft | 307 kts | 12° |
| 2026-05-07 14:26 | 60.16956 | 10.22532 | 14315 ft | 303 kts | 12° |
| 2026-05-07 14:27 | 60.18982 | 10.23707 | 14005 ft | 303 kts | 12° |
| 2026-05-07 14:27 | 60.20985 | 10.24870 | 13681 ft | 302 kts | 12° |
| 2026-05-07 14:27 | 60.23016 | 10.26052 | 13359 ft | 301 kts | 12° |
| 2026-05-07 14:27 | 60.25021 | 10.27220 | 13048 ft | 299 kts | 12° |
| 2026-05-07 14:28 | 60.27012 | 10.28380 | 12734 ft | 298 kts | 13° |
| 2026-05-07 14:28 | 60.29000 | 10.29541 | 12413 ft | 297 kts | 13° |
| 2026-05-07 14:28 | 60.30956 | 10.30685 | 12135 ft | 295 kts | 13° |
| 2026-05-07 14:28 | 60.32923 | 10.31858 | 11815 ft | 295 kts | 15° |
| 2026-05-07 14:29 | 60.34822 | 10.33414 | 11550 ft | 294 kts | 21° |
| 2026-05-07 14:29 | 60.36672 | 10.35151 | 11234 ft | 292 kts | 22° |
| 2026-05-07 14:29 | 60.38500 | 10.36871 | 11015 ft | 287 kts | 22° |
| 2026-05-07 14:29 | 60.40295 | 10.38532 | 10895 ft | 279 kts | 21° |
| 2026-05-07 14:30 | 60.42036 | 10.40124 | 10769 ft | 271 kts | 21° |
| 2026-05-07 14:30 | 60.43737 | 10.41673 | 10655 ft | 263 kts | 21° |
| 2026-05-07 14:30 | 60.45321 | 10.43425 | 10517 ft | 259 kts | 39° |
| 2026-05-07 14:30 | 60.46331 | 10.46340 | 10362 ft | 257 kts | 69° |
| 2026-05-07 14:31 | 60.46639 | 10.49896 | 10170 ft | 255 kts | 88° |
| 2026-05-07 14:31 | 60.46659 | 10.53500 | 9915 ft | 257 kts | 89° |
| 2026-05-07 14:31 | 60.46654 | 10.57130 | 9643 ft | 259 kts | 90° |
| 2026-05-07 14:31 | 60.46643 | 10.60638 | 9384 ft | 260 kts | 90° |
| 2026-05-07 14:32 | 60.46633 | 10.64293 | 9117 ft | 260 kts | 90° |
| 2026-05-07 14:32 | 60.46628 | 10.67966 | 8844 ft | 260 kts | 90° |
| 2026-05-07 14:32 | 60.46626 | 10.71603 | 8625 ft | 258 kts | 90° |
| 2026-05-07 14:32 | 60.46627 | 10.75253 | 8340 ft | 259 kts | 90° |
| 2026-05-07 14:33 | 60.46626 | 10.78932 | 8094 ft | 261 kts | 90° |
| 2026-05-07 14:33 | 60.46627 | 10.82612 | 7824 ft | 261 kts | 90° |
| 2026-05-07 14:33 | 60.46628 | 10.86273 | 7552 ft | 261 kts | 90° |
| 2026-05-07 14:33 | 60.46626 | 10.89944 | 7298 ft | 260 kts | 90° |
| 2026-05-07 14:34 | 60.46627 | 10.93638 | 7065 ft | 263 kts | 90° |
| 2026-05-07 14:34 | 60.46624 | 10.97371 | 6733 ft | 268 kts | 90° |
| 2026-05-07 14:34 | 60.46621 | 11.01151 | 6441 ft | 268 kts | 90° |
| 2026-05-07 14:34 | 60.46616 | 11.04894 | 6138 ft | 262 kts | 90° |
| 2026-05-07 14:35 | 60.46354 | 11.08504 | 5854 ft | 260 kts | 114° |
| 2026-05-07 14:35 | 60.45393 | 11.11563 | 5600 ft | 256 kts | 130° |
| 2026-05-07 14:35 | 60.44238 | 11.14286 | 5379 ft | 255 kts | 132° |
| 2026-05-07 14:35 | 60.43063 | 11.16977 | 5113 ft | 256 kts | 132° |
| 2026-05-07 14:36 | 60.41883 | 11.19713 | 4812 ft | 258 kts | 131° |
| 2026-05-07 14:36 | 60.40701 | 11.22391 | 4511 ft | 257 kts | 139° |
| 2026-05-07 14:36 | 60.39126 | 11.23893 | 4278 ft | 249 kts | 176° |
| 2026-05-07 14:36 | 60.37494 | 11.23250 | 4056 ft | 244 kts | 208° |
| 2026-05-07 14:37 | 60.35966 | 11.21667 | 3788 ft | 243 kts | 203° |
| 2026-05-07 14:37 | 60.32831 | 11.19592 | 3276 ft | 232 kts | 197° |
| 2026-05-07 14:37 | 60.31308 | 11.18700 | 2969 ft | 225 kts | 197° |
| 2026-05-07 14:38 | 60.29836 | 11.17859 | 2655 ft | 218 kts | 197° |
| 2026-05-07 14:38 | 60.28401 | 11.17035 | 2395 ft | 205 kts | 197° |
| 2026-05-07 14:38 | 60.27086 | 11.16277 | 2165 ft | 190 kts | 197° |
| 2026-05-07 14:38 | 60.25859 | 11.15566 | 1877 ft | 175 kts | 197° |
| 2026-05-07 14:39 | 60.24752 | 11.14925 | 1655 ft | 159 kts | 197° |
| 2026-05-07 14:39 | 60.23740 | 11.14340 | 1505 ft | 149 kts | 197° |
| 2026-05-07 14:39 | 60.22807 | 11.13810 | 1383 ft | 139 kts | 197° |
| 2026-05-07 14:39 | 60.21891 | 11.13275 | 1099 ft | 138 kts | 198° |
| 2026-05-07 14:40 | 60.20966 | 11.12743 | 899 ft | 138 kts | 198° |
| 2026-05-07 14:40 | 60.20068 | 11.12222 | 728 ft | 131 kts | 198° |
| 2026-05-07 14:40 | 60.19231 | 11.11732 | 682 ft | 113 kts | 195° |
| 2026-05-07 14:40 | 60.18731 | 11.11445 | 683 ft | 46 kts | 196° |
| 2026-05-07 14:41 | 60.18478 | 11.11223 | 682 ft | 25 kts | 217° |
| 2026-05-07 14:41 | 60.18446 | 11.10990 | 679 ft | 10 kts | 285° |
| 2026-05-07 14:41 | 60.18495 | 11.10915 | 681 ft | 10 kts | 8° |
| 2026-05-07 14:41 | 60.18564 | 11.10956 | 681 ft | 11 kts | 16° |
| 2026-05-07 14:42 | 60.18637 | 11.10997 | 679 ft | 11 kts | 15° |
| 2026-05-07 14:42 | 60.18716 | 11.11042 | 682 ft | 13 kts | 16° |
| 2026-05-07 14:42 | 60.18804 | 11.11093 | 682 ft | 13 kts | 16° |
| 2026-05-07 14:42 | 60.18890 | 11.11143 | 682 ft | 13 kts | 16° |
| 2026-05-07 14:43 | 60.18979 | 11.11195 | 679 ft | 14 kts | 15° |
| 2026-05-07 14:43 | 60.19080 | 11.11253 | 682 ft | 16 kts | 16° |
| 2026-05-07 14:43 | 60.19186 | 11.11314 | 682 ft | 16 kts | 16° |
| 2026-05-07 14:43 | 60.19288 | 11.11373 | 681 ft | 15 kts | 16° |
| 2026-05-07 14:44 | 60.19376 | 11.11394 | 681 ft | 11 kts | 331° |
| 2026-05-07 14:44 | 60.19415 | 11.11261 | 682 ft | 11 kts | 287° |
| 2026-05-07 14:44 | 60.19440 | 11.11088 | 682 ft | 14 kts | 285° |
| 2026-05-07 14:44 | 60.19467 | 11.10890 | 679 ft | 16 kts | 286° |
| 2026-05-07 14:45 | 60.19500 | 11.10664 | 682 ft | 17 kts | 285° |
| 2026-05-07 14:45 | 60.19531 | 11.10447 | 683 ft | 16 kts | 286° |
| 2026-05-07 14:45 | 60.19512 | 11.10269 | 679 ft | 12 kts | 240° |
| 2026-05-07 14:45 | 60.19491 | 11.10204 | 684 ft | 5 kts | 232° |
| 2026-05-07 14:46 | 60.19474 | 11.10160 | 682 ft | 0 kts | 230° |